sensor_id;sensor_type;location;lat;lon;timestamp;P1;durP1;ratioP1;P2;durP2;ratioP2
17488;SDS011;8861;52.644;4.734;2022-07-22T00:02:08;2.27;;;2.07;;
17488;SDS011;8861;52.644;4.734;2022-07-22T00:04:35;2.23;;;1.97;;
17488;SDS011;8861;52.644;4.734;2022-07-22T00:07:02;2.53;;;2.30;;
17488;SDS011;8861;52.644;4.734;2022-07-22T00:09:31;2.43;;;2.23;;
17488;SDS011;8861;52.644;4.734;2022-07-22T00:11:58;2.30;;;2.10;;
17488;SDS011;8861;52.644;4.734;2022-07-22T00:14:25;3.33;;;2.00;;
17488;SDS011;8861;52.644;4.734;2022-07-22T00:16:52;2.53;;;2.33;;
17488;SDS011;8861;52.644;4.734;2022-07-22T00:19:19;2.53;;;2.13;;
17488;SDS011;8861;52.644;4.734;2022-07-22T00:21:46;2.47;;;2.00;;
17488;SDS011;8861;52.644;4.734;2022-07-22T00:24:12;2.30;;;2.10;;
17488;SDS011;8861;52.644;4.734;2022-07-22T00:26:41;3.03;;;2.30;;
17488;SDS011;8861;52.644;4.734;2022-07-22T00:29:08;2.33;;;1.83;;
17488;SDS011;8861;52.644;4.734;2022-07-22T00:31:35;2.00;;;1.90;;
17488;SDS011;8861;52.644;4.734;2022-07-22T00:34:02;2.13;;;1.93;;
17488;SDS011;8861;52.644;4.734;2022-07-22T00:36:29;1.93;;;1.73;;
17488;SDS011;8861;52.644;4.734;2022-07-22T00:38:56;1.90;;;1.80;;
17488;SDS011;8861;52.644;4.734;2022-07-22T00:41:24;1.93;;;1.83;;
17488;SDS011;8861;52.644;4.734;2022-07-22T00:43:53;2.10;;;1.90;;
17488;SDS011;8861;52.644;4.734;2022-07-22T00:46:21;3.50;;;1.90;;
17488;SDS011;8861;52.644;4.734;2022-07-22T00:48:48;2.33;;;1.87;;
17488;SDS011;8861;52.644;4.734;2022-07-22T00:51:16;2.40;;;2.00;;
17488;SDS011;8861;52.644;4.734;2022-07-22T00:53:43;1.80;;;1.70;;
17488;SDS011;8861;52.644;4.734;2022-07-22T00:56:11;1.80;;;1.70;;
17488;SDS011;8861;52.644;4.734;2022-07-22T00:58:39;2.30;;;1.97;;
17488;SDS011;8861;52.644;4.734;2022-07-22T01:01:07;2.87;;;2.10;;
17488;SDS011;8861;52.644;4.734;2022-07-22T01:03:35;2.07;;;1.87;;
17488;SDS011;8861;52.644;4.734;2022-07-22T01:06:02;1.93;;;1.70;;
17488;SDS011;8861;52.644;4.734;2022-07-22T01:08:29;1.73;;;1.63;;
17488;SDS011;8861;52.644;4.734;2022-07-22T01:11:05;2.33;;;2.03;;
17488;SDS011;8861;52.644;4.734;2022-07-22T01:13:32;1.67;;;1.57;;
17488;SDS011;8861;52.644;4.734;2022-07-22T01:16:00;1.90;;;1.80;;
17488;SDS011;8861;52.644;4.734;2022-07-22T01:18:28;1.70;;;1.60;;
17488;SDS011;8861;52.644;4.734;2022-07-22T01:20:56;1.87;;;1.77;;
17488;SDS011;8861;52.644;4.734;2022-07-22T01:23:23;3.03;;;1.93;;
17488;SDS011;8861;52.644;4.734;2022-07-22T01:25:50;1.70;;;1.60;;
17488;SDS011;8861;52.644;4.734;2022-07-22T01:28:17;1.70;;;1.60;;
17488;SDS011;8861;52.644;4.734;2022-07-22T01:30:44;2.10;;;1.70;;
17488;SDS011;8861;52.644;4.734;2022-07-22T01:33:11;1.40;;;1.30;;
17488;SDS011;8861;52.644;4.734;2022-07-22T01:35:38;1.60;;;1.50;;
17488;SDS011;8861;52.644;4.734;2022-07-22T01:38:07;1.50;;;1.40;;
17488;SDS011;8861;52.644;4.734;2022-07-22T01:40:34;1.83;;;1.73;;
17488;SDS011;8861;52.644;4.734;2022-07-22T01:43:02;1.60;;;1.50;;
17488;SDS011;8861;52.644;4.734;2022-07-22T01:45:29;1.47;;;1.37;;
17488;SDS011;8861;52.644;4.734;2022-07-22T01:47:56;2.50;;;1.87;;
17488;SDS011;8861;52.644;4.734;2022-07-22T01:50:23;1.50;;;1.40;;
17488;SDS011;8861;52.644;4.734;2022-07-22T01:52:50;1.70;;;1.60;;
17488;SDS011;8861;52.644;4.734;2022-07-22T01:55:18;1.80;;;1.70;;
17488;SDS011;8861;52.644;4.734;2022-07-22T01:57:45;2.10;;;1.90;;
17488;SDS011;8861;52.644;4.734;2022-07-22T02:00:12;1.90;;;1.80;;
17488;SDS011;8861;52.644;4.734;2022-07-22T02:02:40;2.20;;;2.00;;
17488;SDS011;8861;52.644;4.734;2022-07-22T02:05:07;1.70;;;1.60;;
17488;SDS011;8861;52.644;4.734;2022-07-22T02:07:34;1.70;;;1.60;;
17488;SDS011;8861;52.644;4.734;2022-07-22T02:10:02;2.17;;;1.97;;
17488;SDS011;8861;52.644;4.734;2022-07-22T02:12:32;1.70;;;1.60;;
17488;SDS011;8861;52.644;4.734;2022-07-22T02:14:59;1.73;;;1.63;;
17488;SDS011;8861;52.644;4.734;2022-07-22T02:17:27;2.00;;;1.80;;
17488;SDS011;8861;52.644;4.734;2022-07-22T02:19:54;1.70;;;1.60;;
17488;SDS011;8861;52.644;4.734;2022-07-22T02:22:20;1.80;;;1.70;;
17488;SDS011;8861;52.644;4.734;2022-07-22T02:24:47;1.70;;;1.60;;
17488;SDS011;8861;52.644;4.734;2022-07-22T02:27:14;1.70;;;1.60;;
17488;SDS011;8861;52.644;4.734;2022-07-22T02:29:42;1.60;;;1.50;;
17488;SDS011;8861;52.644;4.734;2022-07-22T02:32:09;1.80;;;1.63;;
17488;SDS011;8861;52.644;4.734;2022-07-22T02:34:36;2.00;;;1.87;;
17488;SDS011;8861;52.644;4.734;2022-07-22T02:37:03;1.80;;;1.70;;
17488;SDS011;8861;52.644;4.734;2022-07-22T02:39:30;1.60;;;1.50;;
17488;SDS011;8861;52.644;4.734;2022-07-22T02:41:57;1.80;;;1.70;;
17488;SDS011;8861;52.644;4.734;2022-07-22T02:44:24;1.83;;;1.73;;
17488;SDS011;8861;52.644;4.734;2022-07-22T02:46:52;1.90;;;1.73;;
17488;SDS011;8861;52.644;4.734;2022-07-22T02:49:19;1.90;;;1.80;;
17488;SDS011;8861;52.644;4.734;2022-07-22T02:51:46;1.90;;;1.80;;
17488;SDS011;8861;52.644;4.734;2022-07-22T02:54:12;2.17;;;1.97;;
17488;SDS011;8861;52.644;4.734;2022-07-22T02:56:39;2.30;;;2.03;;
17488;SDS011;8861;52.644;4.734;2022-07-22T02:59:06;2.53;;;1.93;;
17488;SDS011;8861;52.644;4.734;2022-07-22T03:01:33;2.23;;;1.93;;
17488;SDS011;8861;52.644;4.734;2022-07-22T03:04:02;3.30;;;2.20;;
17488;SDS011;8861;52.644;4.734;2022-07-22T03:06:28;2.50;;;2.10;;
17488;SDS011;8861;52.644;4.734;2022-07-22T03:08:55;2.20;;;2.00;;
17488;SDS011;8861;52.644;4.734;2022-07-22T03:11:22;2.30;;;2.10;;
17488;SDS011;8861;52.644;4.734;2022-07-22T03:13:49;2.50;;;2.30;;
17488;SDS011;8861;52.644;4.734;2022-07-22T03:16:16;2.50;;;2.10;;
17488;SDS011;8861;52.644;4.734;2022-07-22T03:18:43;2.30;;;2.10;;
17488;SDS011;8861;52.644;4.734;2022-07-22T03:21:11;2.13;;;1.97;;
17488;SDS011;8861;52.644;4.734;2022-07-22T03:23:38;2.93;;;2.00;;
17488;SDS011;8861;52.644;4.734;2022-07-22T03:26:05;2.13;;;1.97;;
17488;SDS011;8861;52.644;4.734;2022-07-22T03:28:32;3.33;;;2.27;;
17488;SDS011;8861;52.644;4.734;2022-07-22T03:30:59;2.17;;;2.07;;
17488;SDS011;8861;52.644;4.734;2022-07-22T03:33:26;1.77;;;1.67;;
17488;SDS011;8861;52.644;4.734;2022-07-22T03:35:53;1.87;;;1.77;;
17488;SDS011;8861;52.644;4.734;2022-07-22T03:38:21;1.97;;;1.87;;
17488;SDS011;8861;52.644;4.734;2022-07-22T03:40:48;2.10;;;1.90;;
17488;SDS011;8861;52.644;4.734;2022-07-22T03:43:14;2.20;;;2.00;;
17488;SDS011;8861;52.644;4.734;2022-07-22T03:45:41;1.97;;;1.87;;
17488;SDS011;8861;52.644;4.734;2022-07-22T03:48:10;2.23;;;1.90;;
17488;SDS011;8861;52.644;4.734;2022-07-22T03:50:36;2.43;;;2.23;;
17488;SDS011;8861;52.644;4.734;2022-07-22T03:53:03;2.33;;;2.13;;
17488;SDS011;8861;52.644;4.734;2022-07-22T03:55:32;2.33;;;2.00;;
17488;SDS011;8861;52.644;4.734;2022-07-22T03:57:58;1.87;;;1.77;;
17488;SDS011;8861;52.644;4.734;2022-07-22T04:00:25;2.30;;;2.10;;
17488;SDS011;8861;52.644;4.734;2022-07-22T04:02:52;2.70;;;2.10;;
17488;SDS011;8861;52.644;4.734;2022-07-22T04:05:19;2.50;;;2.20;;
17488;SDS011;8861;52.644;4.734;2022-07-22T04:07:46;2.60;;;2.40;;
17488;SDS011;8861;52.644;4.734;2022-07-22T04:10:13;2.50;;;2.30;;
17488;SDS011;8861;52.644;4.734;2022-07-22T04:12:41;2.20;;;2.00;;
17488;SDS011;8861;52.644;4.734;2022-07-22T04:15:08;2.40;;;2.20;;
17488;SDS011;8861;52.644;4.734;2022-07-22T04:17:35;2.50;;;2.30;;
17488;SDS011;8861;52.644;4.734;2022-07-22T04:20:02;3.47;;;2.50;;
17488;SDS011;8861;52.644;4.734;2022-07-22T04:22:30;2.43;;;2.20;;
17488;SDS011;8861;52.644;4.734;2022-07-22T04:24:57;2.37;;;2.17;;
17488;SDS011;8861;52.644;4.734;2022-07-22T04:27:24;2.63;;;2.30;;
17488;SDS011;8861;52.644;4.734;2022-07-22T04:29:52;2.67;;;2.47;;
17488;SDS011;8861;52.644;4.734;2022-07-22T04:32:20;2.27;;;2.10;;
17488;SDS011;8861;52.644;4.734;2022-07-22T04:34:47;2.30;;;2.10;;
17488;SDS011;8861;52.644;4.734;2022-07-22T04:37:13;2.77;;;2.50;;
17488;SDS011;8861;52.644;4.734;2022-07-22T04:39:40;2.30;;;2.10;;
17488;SDS011;8861;52.644;4.734;2022-07-22T04:42:07;2.67;;;2.47;;
17488;SDS011;8861;52.644;4.734;2022-07-22T04:44:34;2.60;;;2.40;;
17488;SDS011;8861;52.644;4.734;2022-07-22T04:47:02;2.50;;;2.20;;
17488;SDS011;8861;52.644;4.734;2022-07-22T04:49:29;3.80;;;2.50;;
17488;SDS011;8861;52.644;4.734;2022-07-22T04:51:56;2.47;;;2.27;;
17488;SDS011;8861;52.644;4.734;2022-07-22T04:54:23;2.50;;;2.30;;
17488;SDS011;8861;52.644;4.734;2022-07-22T04:56:50;2.43;;;2.23;;
17488;SDS011;8861;52.644;4.734;2022-07-22T04:59:17;2.50;;;2.30;;
17488;SDS011;8861;52.644;4.734;2022-07-22T05:01:44;2.50;;;2.30;;
17488;SDS011;8861;52.644;4.734;2022-07-22T05:04:12;2.43;;;2.23;;
17488;SDS011;8861;52.644;4.734;2022-07-22T05:06:39;2.73;;;2.53;;
17488;SDS011;8861;52.644;4.734;2022-07-22T05:09:06;2.27;;;2.10;;
17488;SDS011;8861;52.644;4.734;2022-07-22T05:11:33;2.63;;;2.43;;
17488;SDS011;8861;52.644;4.734;2022-07-22T05:14:00;2.40;;;2.20;;
17488;SDS011;8861;52.644;4.734;2022-07-22T05:16:26;2.17;;;1.97;;
17488;SDS011;8861;52.644;4.734;2022-07-22T05:18:53;2.33;;;2.10;;
17488;SDS011;8861;52.644;4.734;2022-07-22T05:21:21;2.07;;;1.97;;
17488;SDS011;8861;52.644;4.734;2022-07-22T05:23:48;2.10;;;1.90;;
17488;SDS011;8861;52.644;4.734;2022-07-22T05:26:15;2.27;;;2.07;;
17488;SDS011;8861;52.644;4.734;2022-07-22T05:28:42;2.30;;;2.10;;
17488;SDS011;8861;52.644;4.734;2022-07-22T05:31:09;2.13;;;2.00;;
17488;SDS011;8861;52.644;4.734;2022-07-22T05:33:36;2.53;;;2.33;;
17488;SDS011;8861;52.644;4.734;2022-07-22T05:36:03;2.17;;;2.07;;
17488;SDS011;8861;52.644;4.734;2022-07-22T05:38:32;2.00;;;1.90;;
17488;SDS011;8861;52.644;4.734;2022-07-22T05:40:59;2.23;;;2.10;;
17488;SDS011;8861;52.644;4.734;2022-07-22T05:43:26;1.93;;;1.83;;
17488;SDS011;8861;52.644;4.734;2022-07-22T05:45:53;2.40;;;2.20;;
17488;SDS011;8861;52.644;4.734;2022-07-22T05:48:20;2.23;;;2.10;;
17488;SDS011;8861;52.644;4.734;2022-07-22T05:50:47;2.13;;;2.03;;
17488;SDS011;8861;52.644;4.734;2022-07-22T05:53:14;2.00;;;1.90;;
17488;SDS011;8861;52.644;4.734;2022-07-22T05:55:42;2.00;;;1.90;;
17488;SDS011;8861;52.644;4.734;2022-07-22T05:58:09;2.20;;;2.00;;
17488;SDS011;8861;52.644;4.734;2022-07-22T06:00:36;2.53;;;1.80;;
17488;SDS011;8861;52.644;4.734;2022-07-22T06:03:04;2.10;;;2.00;;
17488;SDS011;8861;52.644;4.734;2022-07-22T06:05:31;1.93;;;1.83;;
17488;SDS011;8861;52.644;4.734;2022-07-22T06:08:00;2.00;;;1.80;;
17488;SDS011;8861;52.644;4.734;2022-07-22T06:10:27;1.97;;;1.87;;
17488;SDS011;8861;52.644;4.734;2022-07-22T06:12:56;2.13;;;2.00;;
17488;SDS011;8861;52.644;4.734;2022-07-22T06:15:23;1.80;;;1.70;;
17488;SDS011;8861;52.644;4.734;2022-07-22T06:17:49;1.70;;;1.60;;
17488;SDS011;8861;52.644;4.734;2022-07-22T06:20:16;1.90;;;1.80;;
17488;SDS011;8861;52.644;4.734;2022-07-22T06:22:43;2.00;;;1.90;;
17488;SDS011;8861;52.644;4.734;2022-07-22T06:25:10;2.03;;;1.93;;
17488;SDS011;8861;52.644;4.734;2022-07-22T06:27:37;2.13;;;2.03;;
17488;SDS011;8861;52.644;4.734;2022-07-22T06:30:06;1.70;;;1.60;;
17488;SDS011;8861;52.644;4.734;2022-07-22T06:32:34;1.97;;;1.87;;
17488;SDS011;8861;52.644;4.734;2022-07-22T06:35:01;1.90;;;1.80;;
17488;SDS011;8861;52.644;4.734;2022-07-22T06:37:28;1.87;;;1.77;;
17488;SDS011;8861;52.644;4.734;2022-07-22T06:39:55;1.87;;;1.67;;
17488;SDS011;8861;52.644;4.734;2022-07-22T06:42:22;1.80;;;1.70;;
17488;SDS011;8861;52.644;4.734;2022-07-22T06:44:50;1.70;;;1.60;;
17488;SDS011;8861;52.644;4.734;2022-07-22T06:47:19;1.60;;;1.50;;
17488;SDS011;8861;52.644;4.734;2022-07-22T06:49:45;1.90;;;1.80;;
17488;SDS011;8861;52.644;4.734;2022-07-22T06:52:12;1.90;;;1.70;;
17488;SDS011;8861;52.644;4.734;2022-07-22T06:54:39;1.90;;;1.80;;
17488;SDS011;8861;52.644;4.734;2022-07-22T06:57:06;1.63;;;1.53;;
17488;SDS011;8861;52.644;4.734;2022-07-22T06:59:33;2.20;;;2.00;;
17488;SDS011;8861;52.644;4.734;2022-07-22T07:02:00;1.73;;;1.63;;
17488;SDS011;8861;52.644;4.734;2022-07-22T07:04:28;2.10;;;2.00;;
17488;SDS011;8861;52.644;4.734;2022-07-22T07:06:55;1.97;;;1.87;;
17488;SDS011;8861;52.644;4.734;2022-07-22T07:09:22;2.00;;;1.90;;
17488;SDS011;8861;52.644;4.734;2022-07-22T07:11:49;1.90;;;1.80;;
17488;SDS011;8861;52.644;4.734;2022-07-22T07:14:16;1.70;;;1.60;;
17488;SDS011;8861;52.644;4.734;2022-07-22T07:16:43;1.80;;;1.70;;
17488;SDS011;8861;52.644;4.734;2022-07-22T07:19:10;1.77;;;1.67;;
17488;SDS011;8861;52.644;4.734;2022-07-22T07:21:38;1.97;;;1.87;;
17488;SDS011;8861;52.644;4.734;2022-07-22T07:24:05;1.87;;;1.77;;
17488;SDS011;8861;52.644;4.734;2022-07-22T07:26:32;1.80;;;1.70;;
17488;SDS011;8861;52.644;4.734;2022-07-22T07:28:59;2.00;;;1.90;;
17488;SDS011;8861;52.644;4.734;2022-07-22T07:31:26;1.93;;;1.83;;
17488;SDS011;8861;52.644;4.734;2022-07-22T07:33:53;2.00;;;1.90;;
17488;SDS011;8861;52.644;4.734;2022-07-22T07:36:20;1.90;;;1.80;;
17488;SDS011;8861;52.644;4.734;2022-07-22T07:38:48;1.83;;;1.73;;
17488;SDS011;8861;52.644;4.734;2022-07-22T07:41:15;2.00;;;1.90;;
17488;SDS011;8861;52.644;4.734;2022-07-22T07:43:43;2.30;;;2.10;;
17488;SDS011;8861;52.644;4.734;2022-07-22T07:46:10;2.50;;;2.20;;
17488;SDS011;8861;52.644;4.734;2022-07-22T07:48:37;2.40;;;2.13;;
17488;SDS011;8861;52.644;4.734;2022-07-22T07:51:04;2.30;;;2.10;;
17488;SDS011;8861;52.644;4.734;2022-07-22T07:53:31;2.17;;;1.90;;
17488;SDS011;8861;52.644;4.734;2022-07-22T07:55:59;2.33;;;2.10;;
17488;SDS011;8861;52.644;4.734;2022-07-22T07:58:26;2.17;;;2.07;;
17488;SDS011;8861;52.644;4.734;2022-07-22T08:00:53;1.97;;;1.87;;
17488;SDS011;8861;52.644;4.734;2022-07-22T08:03:20;2.30;;;2.00;;
17488;SDS011;8861;52.644;4.734;2022-07-22T08:05:47;2.03;;;1.93;;
17488;SDS011;8861;52.644;4.734;2022-07-22T08:08:14;2.07;;;1.97;;
17488;SDS011;8861;52.644;4.734;2022-07-22T08:10:41;1.90;;;1.70;;
17488;SDS011;8861;52.644;4.734;2022-07-22T08:13:09;1.97;;;1.80;;
17488;SDS011;8861;52.644;4.734;2022-07-22T08:15:36;1.80;;;1.70;;
17488;SDS011;8861;52.644;4.734;2022-07-22T08:18:03;1.93;;;1.83;;
17488;SDS011;8861;52.644;4.734;2022-07-22T08:20:30;2.53;;;2.10;;
17488;SDS011;8861;52.644;4.734;2022-07-22T08:22:57;2.23;;;2.03;;
17488;SDS011;8861;52.644;4.734;2022-07-22T08:25:24;2.00;;;1.80;;
17488;SDS011;8861;52.644;4.734;2022-07-22T08:27:52;2.10;;;1.80;;
17488;SDS011;8861;52.644;4.734;2022-07-22T08:30:20;2.10;;;1.90;;
17488;SDS011;8861;52.644;4.734;2022-07-22T08:32:48;1.90;;;1.80;;
17488;SDS011;8861;52.644;4.734;2022-07-22T08:35:15;2.13;;;1.87;;
17488;SDS011;8861;52.644;4.734;2022-07-22T08:37:43;2.00;;;1.90;;
17488;SDS011;8861;52.644;4.734;2022-07-22T08:40:12;1.90;;;1.80;;
17488;SDS011;8861;52.644;4.734;2022-07-22T08:42:40;1.90;;;1.80;;
17488;SDS011;8861;52.644;4.734;2022-07-22T08:45:08;2.30;;;1.63;;
17488;SDS011;8861;52.644;4.734;2022-07-22T08:47:37;2.03;;;1.87;;
17488;SDS011;8861;52.644;4.734;2022-07-22T08:50:04;1.87;;;1.73;;
17488;SDS011;8861;52.644;4.734;2022-07-22T08:52:32;1.60;;;1.50;;
17488;SDS011;8861;52.644;4.734;2022-07-22T08:55:01;1.80;;;1.70;;
17488;SDS011;8861;52.644;4.734;2022-07-22T08:57:29;2.10;;;1.90;;
17488;SDS011;8861;52.644;4.734;2022-07-22T08:59:56;2.00;;;1.80;;
17488;SDS011;8861;52.644;4.734;2022-07-22T09:02:24;1.67;;;1.57;;
17488;SDS011;8861;52.644;4.734;2022-07-22T09:04:54;1.73;;;1.60;;
17488;SDS011;8861;52.644;4.734;2022-07-22T09:07:23;1.80;;;1.70;;
17488;SDS011;8861;52.644;4.734;2022-07-22T09:09:51;1.63;;;1.47;;
17488;SDS011;8861;52.644;4.734;2022-07-22T09:12:18;2.00;;;1.57;;
17488;SDS011;8861;52.644;4.734;2022-07-22T09:14:46;2.37;;;2.00;;
17488;SDS011;8861;52.644;4.734;2022-07-22T09:17:24;2.50;;;1.80;;
17488;SDS011;8861;52.644;4.734;2022-07-22T09:19:54;1.80;;;1.70;;
17488;SDS011;8861;52.644;4.734;2022-07-22T09:22:31;2.43;;;2.00;;
17488;SDS011;8861;52.644;4.734;2022-07-22T09:25:02;1.87;;;1.77;;
17488;SDS011;8861;52.644;4.734;2022-07-22T09:27:44;2.20;;;1.90;;
17488;SDS011;8861;52.644;4.734;2022-07-22T09:30:11;2.00;;;1.70;;
17488;SDS011;8861;52.644;4.734;2022-07-22T09:32:39;1.97;;;1.80;;
17488;SDS011;8861;52.644;4.734;2022-07-22T09:35:09;1.90;;;1.80;;
17488;SDS011;8861;52.644;4.734;2022-07-22T09:37:36;1.70;;;1.60;;
17488;SDS011;8861;52.644;4.734;2022-07-22T09:40:11;2.10;;;1.90;;
17488;SDS011;8861;52.644;4.734;2022-07-22T09:42:45;2.03;;;1.83;;
17488;SDS011;8861;52.644;4.734;2022-07-22T09:45:14;2.07;;;1.80;;
17488;SDS011;8861;52.644;4.734;2022-07-22T09:47:43;2.53;;;1.73;;
17488;SDS011;8861;52.644;4.734;2022-07-22T09:50:15;2.57;;;1.90;;
17488;SDS011;8861;52.644;4.734;2022-07-22T09:52:44;2.13;;;1.80;;
17488;SDS011;8861;52.644;4.734;2022-07-22T09:55:13;2.33;;;1.90;;
17488;SDS011;8861;52.644;4.734;2022-07-22T09:57:41;2.33;;;1.80;;
17488;SDS011;8861;52.644;4.734;2022-07-22T10:00:08;2.47;;;1.93;;
17488;SDS011;8861;52.644;4.734;2022-07-22T10:02:37;4.23;;;2.23;;
17488;SDS011;8861;52.644;4.734;2022-07-22T10:05:08;2.13;;;1.80;;
17488;SDS011;8861;52.644;4.734;2022-07-22T10:07:40;2.17;;;1.97;;
17488;SDS011;8861;52.644;4.734;2022-07-22T10:10:08;2.67;;;2.10;;
17488;SDS011;8861;52.644;4.734;2022-07-22T10:12:36;2.10;;;1.90;;
17488;SDS011;8861;52.644;4.734;2022-07-22T10:15:04;2.40;;;1.97;;
17488;SDS011;8861;52.644;4.734;2022-07-22T10:17:32;2.50;;;1.80;;
17488;SDS011;8861;52.644;4.734;2022-07-22T10:20:02;2.20;;;2.00;;
17488;SDS011;8861;52.644;4.734;2022-07-22T10:22:45;2.50;;;1.80;;
17488;SDS011;8861;52.644;4.734;2022-07-22T10:25:21;2.60;;;1.70;;
17488;SDS011;8861;52.644;4.734;2022-07-22T10:27:50;3.50;;;1.87;;
17488;SDS011;8861;52.644;4.734;2022-07-22T10:30:19;1.83;;;1.60;;
17488;SDS011;8861;52.644;4.734;2022-07-22T10:33:00;2.67;;;1.90;;
17488;SDS011;8861;52.644;4.734;2022-07-22T10:35:29;2.40;;;1.80;;
17488;SDS011;8861;52.644;4.734;2022-07-22T10:37:58;1.70;;;1.60;;
17488;SDS011;8861;52.644;4.734;2022-07-22T10:40:28;1.93;;;1.63;;
17488;SDS011;8861;52.644;4.734;2022-07-22T10:43:03;2.50;;;1.50;;
17488;SDS011;8861;52.644;4.734;2022-07-22T10:45:40;1.80;;;1.70;;
17488;SDS011;8861;52.644;4.734;2022-07-22T10:48:11;1.93;;;1.50;;
17488;SDS011;8861;52.644;4.734;2022-07-22T10:50:42;1.77;;;1.60;;
17488;SDS011;8861;52.644;4.734;2022-07-22T10:53:16;1.67;;;1.57;;
17488;SDS011;8861;52.644;4.734;2022-07-22T10:56:03;1.60;;;1.50;;
17488;SDS011;8861;52.644;4.734;2022-07-22T10:58:46;2.90;;;1.70;;
17488;SDS011;8861;52.644;4.734;2022-07-22T11:01:18;2.03;;;1.63;;
17488;SDS011;8861;52.644;4.734;2022-07-22T11:03:47;2.30;;;1.90;;
17488;SDS011;8861;52.644;4.734;2022-07-22T11:06:26;2.00;;;1.60;;
17488;SDS011;8861;52.644;4.734;2022-07-22T11:08:56;2.30;;;1.77;;
17488;SDS011;8861;52.644;4.734;2022-07-22T11:11:35;2.17;;;1.53;;
17488;SDS011;8861;52.644;4.734;2022-07-22T11:14:10;1.63;;;1.50;;
17488;SDS011;8861;52.644;4.734;2022-07-22T11:16:46;1.70;;;1.53;;
17488;SDS011;8861;52.644;4.734;2022-07-22T11:19:13;2.07;;;1.80;;
17488;SDS011;8861;52.644;4.734;2022-07-22T11:21:48;1.57;;;1.47;;
17488;SDS011;8861;52.644;4.734;2022-07-22T11:24:17;1.77;;;1.50;;
17488;SDS011;8861;52.644;4.734;2022-07-22T11:26:45;1.93;;;1.50;;
17488;SDS011;8861;52.644;4.734;2022-07-22T11:29:15;1.83;;;1.50;;
17488;SDS011;8861;52.644;4.734;2022-07-22T11:31:43;2.83;;;1.80;;
17488;SDS011;8861;52.644;4.734;2022-07-22T11:34:11;3.87;;;1.80;;
17488;SDS011;8861;52.644;4.734;2022-07-22T11:36:40;2.10;;;1.50;;
17488;SDS011;8861;52.644;4.734;2022-07-22T11:39:09;3.33;;;1.50;;
17488;SDS011;8861;52.644;4.734;2022-07-22T11:41:38;3.20;;;1.57;;
17488;SDS011;8861;52.644;4.734;2022-07-22T11:44:06;2.00;;;1.70;;
17488;SDS011;8861;52.644;4.734;2022-07-22T11:46:34;1.90;;;1.47;;
17488;SDS011;8861;52.644;4.734;2022-07-22T11:49:03;2.67;;;1.73;;
17488;SDS011;8861;52.644;4.734;2022-07-22T11:51:31;1.70;;;1.50;;
17488;SDS011;8861;52.644;4.734;2022-07-22T11:53:59;1.67;;;1.57;;
17488;SDS011;8861;52.644;4.734;2022-07-22T11:56:27;2.13;;;1.70;;
17488;SDS011;8861;52.644;4.734;2022-07-22T11:58:55;2.73;;;1.60;;
17488;SDS011;8861;52.644;4.734;2022-07-22T12:01:23;1.57;;;1.40;;
17488;SDS011;8861;52.644;4.734;2022-07-22T12:03:51;1.60;;;1.50;;
17488;SDS011;8861;52.644;4.734;2022-07-22T12:06:20;2.63;;;1.60;;
17488;SDS011;8861;52.644;4.734;2022-07-22T12:08:49;2.47;;;1.60;;
17488;SDS011;8861;52.644;4.734;2022-07-22T12:11:17;2.30;;;1.40;;
17488;SDS011;8861;52.644;4.734;2022-07-22T12:13:46;2.93;;;1.60;;
17488;SDS011;8861;52.644;4.734;2022-07-22T12:16:20;2.53;;;1.60;;
17488;SDS011;8861;52.644;4.734;2022-07-22T12:18:52;2.33;;;1.50;;
17488;SDS011;8861;52.644;4.734;2022-07-22T12:21:22;1.60;;;1.50;;
17488;SDS011;8861;52.644;4.734;2022-07-22T12:23:50;1.80;;;1.40;;
17488;SDS011;8861;52.644;4.734;2022-07-22T12:26:18;1.70;;;1.40;;
17488;SDS011;8861;52.644;4.734;2022-07-22T12:28:45;1.70;;;1.60;;
17488;SDS011;8861;52.644;4.734;2022-07-22T12:31:12;1.77;;;1.53;;
17488;SDS011;8861;52.644;4.734;2022-07-22T12:33:47;1.87;;;1.57;;
17488;SDS011;8861;52.644;4.734;2022-07-22T12:36:15;2.00;;;1.33;;
17488;SDS011;8861;52.644;4.734;2022-07-22T12:38:42;1.67;;;1.40;;
17488;SDS011;8861;52.644;4.734;2022-07-22T12:41:21;1.97;;;1.37;;
17488;SDS011;8861;52.644;4.734;2022-07-22T12:43:50;1.90;;;1.50;;
17488;SDS011;8861;52.644;4.734;2022-07-22T12:46:17;1.80;;;1.57;;
17488;SDS011;8861;52.644;4.734;2022-07-22T12:48:49;2.77;;;1.80;;
17488;SDS011;8861;52.644;4.734;2022-07-22T12:51:17;3.20;;;1.87;;
17488;SDS011;8861;52.644;4.734;2022-07-22T12:53:44;2.80;;;1.80;;
17488;SDS011;8861;52.644;4.734;2022-07-22T12:56:11;2.57;;;1.73;;
17488;SDS011;8861;52.644;4.734;2022-07-22T12:58:38;2.10;;;1.60;;
17488;SDS011;8861;52.644;4.734;2022-07-22T13:01:06;1.80;;;1.70;;
17488;SDS011;8861;52.644;4.734;2022-07-22T13:03:35;1.93;;;1.67;;
17488;SDS011;8861;52.644;4.734;2022-07-22T13:06:04;1.77;;;1.67;;
17488;SDS011;8861;52.644;4.734;2022-07-22T13:08:32;2.30;;;1.53;;
17488;SDS011;8861;52.644;4.734;2022-07-22T13:10:59;2.00;;;1.60;;
17488;SDS011;8861;52.644;4.734;2022-07-22T13:13:25;4.83;;;1.63;;
17488;SDS011;8861;52.644;4.734;2022-07-22T13:15:52;1.67;;;1.53;;
17488;SDS011;8861;52.644;4.734;2022-07-22T13:18:19;2.17;;;1.47;;
17488;SDS011;8861;52.644;4.734;2022-07-22T13:20:47;1.90;;;1.60;;
17488;SDS011;8861;52.644;4.734;2022-07-22T13:23:15;1.90;;;1.60;;
17488;SDS011;8861;52.644;4.734;2022-07-22T13:25:42;1.50;;;1.40;;
17488;SDS011;8861;52.644;4.734;2022-07-22T13:28:09;2.03;;;1.40;;
17488;SDS011;8861;52.644;4.734;2022-07-22T13:30:36;1.87;;;1.60;;
17488;SDS011;8861;52.644;4.734;2022-07-22T13:33:03;1.80;;;1.50;;
17488;SDS011;8861;52.644;4.734;2022-07-22T13:35:30;2.57;;;1.60;;
17488;SDS011;8861;52.644;4.734;2022-07-22T13:37:57;3.33;;;1.87;;
17488;SDS011;8861;52.644;4.734;2022-07-22T13:40:25;1.60;;;1.50;;
17488;SDS011;8861;52.644;4.734;2022-07-22T13:42:52;1.60;;;1.50;;
17488;SDS011;8861;52.644;4.734;2022-07-22T13:45:19;1.60;;;1.50;;
17488;SDS011;8861;52.644;4.734;2022-07-22T13:47:46;1.77;;;1.23;;
17488;SDS011;8861;52.644;4.734;2022-07-22T13:50:13;2.23;;;1.77;;
17488;SDS011;8861;52.644;4.734;2022-07-22T13:52:40;1.87;;;1.60;;
17488;SDS011;8861;52.644;4.734;2022-07-22T13:55:11;1.80;;;1.60;;
17488;SDS011;8861;52.644;4.734;2022-07-22T13:57:40;1.83;;;1.60;;
17488;SDS011;8861;52.644;4.734;2022-07-22T14:00:07;1.70;;;1.43;;
17488;SDS011;8861;52.644;4.734;2022-07-22T14:02:36;2.33;;;1.70;;
17488;SDS011;8861;52.644;4.734;2022-07-22T14:05:04;2.23;;;1.57;;
17488;SDS011;8861;52.644;4.734;2022-07-22T14:07:31;3.37;;;1.73;;
17488;SDS011;8861;52.644;4.734;2022-07-22T14:09:58;1.60;;;1.30;;
17488;SDS011;8861;52.644;4.734;2022-07-22T14:12:25;2.50;;;1.50;;
17488;SDS011;8861;52.644;4.734;2022-07-22T14:14:53;1.63;;;1.50;;
17488;SDS011;8861;52.644;4.734;2022-07-22T14:17:20;1.50;;;1.40;;
17488;SDS011;8861;52.644;4.734;2022-07-22T14:19:47;2.33;;;1.53;;
17488;SDS011;8861;52.644;4.734;2022-07-22T14:22:13;2.00;;;1.30;;
17488;SDS011;8861;52.644;4.734;2022-07-22T14:24:40;2.00;;;1.30;;
17488;SDS011;8861;52.644;4.734;2022-07-22T14:27:07;1.50;;;1.37;;
17488;SDS011;8861;52.644;4.734;2022-07-22T14:29:34;2.40;;;1.43;;
17488;SDS011;8861;52.644;4.734;2022-07-22T14:32:03;1.40;;;1.30;;
17488;SDS011;8861;52.644;4.734;2022-07-22T14:34:30;2.43;;;1.30;;
17488;SDS011;8861;52.644;4.734;2022-07-22T14:36:57;2.07;;;1.40;;
17488;SDS011;8861;52.644;4.734;2022-07-22T14:39:24;1.83;;;1.30;;
17488;SDS011;8861;52.644;4.734;2022-07-22T14:41:51;1.53;;;1.13;;
17488;SDS011;8861;52.644;4.734;2022-07-22T14:44:18;1.60;;;1.30;;
17488;SDS011;8861;52.644;4.734;2022-07-22T14:46:44;2.33;;;1.30;;
17488;SDS011;8861;52.644;4.734;2022-07-22T14:49:13;2.20;;;1.30;;
17488;SDS011;8861;52.644;4.734;2022-07-22T14:51:40;1.63;;;1.23;;
17488;SDS011;8861;52.644;4.734;2022-07-22T14:54:07;1.73;;;1.20;;
17488;SDS011;8861;52.644;4.734;2022-07-22T14:56:36;2.67;;;1.30;;
17488;SDS011;8861;52.644;4.734;2022-07-22T14:59:03;1.57;;;1.07;;
17488;SDS011;8861;52.644;4.734;2022-07-22T15:01:30;2.33;;;1.30;;
17488;SDS011;8861;52.644;4.734;2022-07-22T15:03:57;1.60;;;1.30;;
17488;SDS011;8861;52.644;4.734;2022-07-22T15:06:25;1.50;;;1.27;;